Main page
METAR-TAF:

METAR-TAF

Airports :

Lankaran International Airport

Lankaran, Azerbaijan

latitude: 38-44-47N, longitude: 048-49-04E, elevation: 9 m

Current weather observation

The report was made 10 minutes ago, at 03:00 UTC
Calm wind
Temperature 6°C
Humidity 87%
Pressure 1026 hPa
Visibility 10 km or more
Scattered clouds at a height of 10000 ft

METAR: UBBL 260300Z 00000KT 9999 SCT100 06/04 Q1026 R33/CLRD// NOSIG RMK MT OP

Time: 07:10 (03:10 UTC)

Forecast

The report was made 4 hours and 4 minutes ago, at 23:06 UTC
Forecast valid from 26 at 00 UTC to 26 at 24 UTC
Wind 4 kt from variable directions
Visibility: 9000 m
Few clouds at a height of 3000 ft
Scattered clouds at a height of 10000 ft
Becoming
from 26 at 08 UTC to 26 at 10 UTC
Wind 10 kt from the Southeast

TAF: UBBL 252306Z 2600/2624 VRB04KT 9000 FEW030 SCT100 TX17/2610Z TN08/2602Z BECMG 2608/2610 14010KT

Weather observations and forecasts of more than 4000 airports (METAR and TAF reports).

The available stations are represented by yellow and red dots on the map.

Hover mouse over dot to see the name of the station.

Then click to see weather observations and forecasts.

To change the map : click on the green buttons with a black cross to zoom in, on the green button with a dash to zoom out, or on the green arrows for adjacent maps.


METAR-TAF: